createdAt,value
2022-10-31T05:16:44.209Z,3.78
2022-10-31T05:19:29.324Z,3.20
2022-10-31T05:22:16.003Z,2.95
2022-10-31T05:25:32.958Z,2.85
2022-10-31T05:28:03.756Z,3.80
2022-10-31T05:30:32.613Z,4.05
2022-10-31T05:32:59.861Z,3.72
2022-10-31T05:36:05.313Z,4.20
2022-10-31T05:38:54.794Z,4.68
2022-10-31T05:41:24.997Z,4.50
2022-10-31T05:43:54.111Z,5.47
2022-10-31T05:46:27.162Z,5.93
2022-10-31T05:49:13.593Z,5.05
2022-10-31T05:51:59.100Z,5.40
2022-10-31T05:54:39.190Z,6.13
2022-10-31T05:57:06.004Z,4.95
2022-10-31T05:59:32.666Z,4.82
2022-10-31T06:02:01.057Z,3.58
2022-10-31T06:04:47.260Z,4.60
2022-10-31T06:07:13.876Z,4.82
2022-10-31T06:09:40.270Z,6.00
2022-10-31T06:12:07.396Z,6.40
2022-10-31T06:14:54.829Z,4.85
2022-10-31T06:17:27.248Z,4.22
2022-10-31T06:20:28.704Z,4.13
2022-10-31T06:23:04.494Z,3.95
2022-10-31T06:25:33.755Z,4.38
2022-10-31T06:28:00.258Z,4.55
2022-10-31T06:30:35.639Z,4.93
2022-10-31T06:33:04.707Z,4.70
2022-10-31T06:35:36.910Z,4.75
2022-10-31T06:38:05.370Z,4.90
2022-10-31T06:40:40.965Z,5.78
2022-10-31T06:43:21.576Z,5.43
2022-10-31T06:49:43.523Z,4.55
2022-10-31T06:53:21.452Z,5.10
2022-10-31T06:55:58.129Z,6.32
2022-10-31T06:58:25.065Z,5.70
2022-10-31T07:00:55.099Z,6.55
2022-10-31T07:03:24.868Z,6.22
2022-10-31T07:05:57.643Z,5.10
2022-10-31T07:08:24.958Z,6.28
2022-10-31T07:10:55.340Z,5.32
2022-10-31T07:13:33.988Z,6.45
2022-10-31T07:18:43.476Z,5.22
2022-10-31T07:21:15.657Z,5.88
2022-10-31T07:23:42.221Z,7.05
2022-10-31T07:26:30.479Z,5.28
2022-10-31T07:28:57.384Z,5.57
2022-10-31T07:31:26.021Z,6.50
2022-10-31T07:33:55.317Z,5.65
2022-10-31T07:36:41.865Z,5.35
2022-10-31T07:39:14.735Z,6.53
2022-10-31T07:42:51.595Z,6.00
2022-10-31T07:45:36.766Z,4.82
2022-10-31T07:48:26.170Z,5.63
2022-10-31T07:51:11.252Z,5.43
2022-10-31T07:54:10.386Z,6.13
2022-10-31T07:56:44.698Z,5.55
2022-10-31T07:59:12.853Z,5.43
2022-10-31T08:01:44.701Z,6.57
2022-10-31T08:04:58.586Z,5.70
2022-10-31T08:07:58.915Z,5.90
2022-10-31T08:10:27.413Z,5.82
2022-10-31T08:13:24.594Z,6.55
2022-10-31T08:16:04.266Z,5.93
2022-10-31T08:18:58.341Z,6.32
2022-10-31T08:21:27.902Z,6.10
2022-10-31T08:24:24.479Z,5.57
2022-10-31T08:27:12.824Z,5.43
2022-10-31T08:29:47.589Z,5.07
2022-10-31T08:32:20.023Z,5.80
2022-10-31T08:35:06.482Z,7.07
2022-10-31T08:38:03.926Z,6.90
2022-10-31T08:40:34.154Z,6.60
2022-10-31T08:43:08.026Z,5.53
2022-10-31T08:45:38.406Z,5.28
2022-10-31T08:48:18.069Z,4.65
2022-10-31T08:50:45.969Z,4.97
2022-10-31T08:53:20.887Z,5.72
2022-10-31T08:55:57.788Z,5.45
2022-10-31T08:58:26.644Z,5.25
2022-10-31T09:01:00.878Z,5.25
2022-10-31T09:03:29.979Z,4.93
2022-10-31T09:05:58.915Z,6.43
2022-10-31T09:08:27.772Z,7.22
2022-10-31T09:10:57.372Z,5.05
2022-10-31T09:13:44.128Z,5.63
2022-10-31T09:16:29.472Z,5.93
2022-10-31T09:18:56.261Z,5.85
2022-10-31T09:21:23.216Z,5.40
2022-10-31T09:23:49.832Z,5.45
2022-10-31T09:26:16.494Z,7.85
2022-10-31T09:29:06.360Z,6.07
2022-10-31T09:31:45.091Z,5.70
2022-10-31T09:34:46.337Z,6.25
2022-10-31T09:37:20.403Z,6.82
2022-10-31T09:39:51.957Z,5.28
2022-10-31T09:42:55.912Z,6.15
2022-10-31T09:45:53.670Z,5.47
2022-10-31T09:48:51.637Z,5.72
2022-10-31T09:51:28.627Z,5.78
2022-10-31T09:54:33.758Z,5.25
2022-10-31T09:58:00.626Z,6.00
2022-10-31T10:00:27.812Z,5.20
2022-10-31T10:03:33.070Z,5.45
2022-10-31T10:06:47.319Z,5.72
2022-10-31T10:09:32.359Z,4.72
2022-10-31T10:13:06.418Z,6.07
2022-10-31T10:16:00.903Z,5.00
2022-10-31T10:18:44.543Z,6.45
2022-10-31T10:21:17.006Z,6.22
2022-10-31T10:24:10.863Z,5.75
2022-10-31T10:26:44.218Z,5.10
2022-10-31T10:29:43.578Z,5.43
2022-10-31T10:32:19.226Z,5.72
2022-10-31T10:34:51.516Z,5.68
2022-10-31T10:37:45.973Z,5.65
2022-10-31T10:40:42.614Z,5.50
2022-10-31T10:43:38.492Z,5.22
2022-10-31T10:46:30.484Z,5.32
2022-10-31T10:49:25.340Z,6.07
2022-10-31T10:52:20.294Z,5.88
2022-10-31T10:55:04.031Z,6.07
2022-10-31T10:57:39.201Z,5.78
2022-10-31T11:00:25.031Z,5.57
2022-10-31T11:03:19.221Z,6.72
2022-10-31T11:08:33.193Z,6.78
2022-10-31T11:11:08.279Z,6.47
2022-10-31T11:13:43.177Z,6.93
2022-10-31T11:16:43.723Z,6.40
2022-10-31T11:19:17.725Z,7.32
2022-10-31T11:22:09.998Z,7.18
2022-10-31T11:24:41.434Z,5.85
2022-10-31T11:27:28.555Z,6.68
2022-10-31T11:30:06.906Z,6.57
2022-10-31T11:32:36.691Z,6.50
2022-10-31T11:35:12.198Z,6.20
2022-10-31T11:37:44.103Z,6.25
2022-10-31T11:40:20.431Z,5.78
2022-10-31T11:42:50.978Z,6.22
2022-10-31T11:45:24.103Z,5.80
2022-10-31T11:50:53.416Z,6.20
2022-10-31T11:53:26.853Z,5.50
2022-10-31T11:56:44.800Z,5.75
2022-10-31T11:59:31.384Z,6.20
2022-10-31T12:02:19.712Z,5.43
2022-10-31T12:04:55.106Z,4.60
2022-10-31T12:07:25.921Z,5.00
2022-10-31T12:09:52.670Z,4.60
2022-10-31T12:12:46.094Z,5.50
2022-10-31T12:15:26.207Z,4.07
2022-10-31T12:18:10.947Z,4.60
2022-10-31T12:20:51.158Z,4.60
2022-10-31T12:23:17.720Z,5.65
2022-10-31T12:25:54.800Z,4.43
2022-10-31T12:28:32.456Z,4.38
2022-10-31T12:31:41.136Z,4.55
2022-10-31T12:34:50.530Z,5.25
2022-10-31T12:37:50.824Z,4.60
2022-10-31T12:40:58.682Z,4.40
2022-10-31T12:43:43.669Z,4.80
2022-10-31T12:46:32.519Z,4.30
2022-10-31T12:49:36.070Z,4.40
2022-10-31T12:55:17.722Z,3.75
2022-10-31T12:57:49.566Z,3.58
2022-10-31T13:00:19.182Z,3.47
2022-10-31T13:03:13.576Z,3.88
2022-10-31T13:05:49.148Z,4.25
2022-10-31T13:08:21.079Z,3.92
2022-10-31T13:10:53.156Z,3.67
2022-10-31T13:13:37.634Z,3.50
2022-10-31T13:16:19.462Z,3.53
2022-10-31T13:18:55.422Z,3.83
2022-10-31T13:21:43.828Z,4.63
2022-10-31T13:24:17.307Z,4.40
2022-10-31T13:26:52.415Z,4.57
2022-10-31T13:29:36.885Z,3.53
2022-10-31T13:32:08.113Z,4.80
2022-10-31T13:34:39.564Z,4.00
2022-10-31T13:37:12.215Z,3.83
2022-10-31T13:39:51.345Z,4.07
2022-10-31T13:42:32.542Z,4.20
2022-10-31T13:45:13.496Z,4.10
2022-10-31T13:47:42.185Z,4.53
2022-10-31T13:50:19.331Z,3.20
2022-10-31T13:52:47.373Z,4.65
2022-10-31T13:55:38.958Z,3.63
2022-10-31T13:58:33.873Z,4.40
2022-10-31T14:01:25.745Z,3.83
2022-10-31T14:04:18.075Z,4.47
2022-10-31T14:07:06.863Z,3.88
2022-10-31T14:09:40.938Z,4.10
2022-10-31T14:12:35.126Z,3.95
2022-10-31T14:15:10.553Z,4.18
2022-10-31T14:17:48.760Z,4.05
2022-10-31T14:20:15.178Z,4.75
2022-10-31T14:22:43.012Z,3.40
2022-10-31T14:25:33.693Z,3.85
2022-10-31T14:28:20.082Z,3.72
2022-10-31T14:30:58.491Z,3.90
2022-10-31T14:33:28.669Z,4.13
2022-10-31T14:35:59.343Z,4.40
2022-10-31T14:38:32.175Z,4.43
2022-10-31T14:41:36.254Z,4.68
2022-10-31T14:44:40.539Z,4.32
2022-10-31T14:47:33.657Z,3.95
2022-10-31T14:50:25.193Z,4.93
2022-10-31T14:52:55.712Z,4.28
2022-10-31T14:55:23.885Z,4.00
2022-10-31T14:58:09.046Z,4.30
2022-10-31T15:00:37.115Z,4.32
2022-10-31T15:03:19.521Z,4.75
2022-10-31T15:05:52.325Z,4.28
2022-10-31T15:08:47.756Z,4.43
2022-10-31T15:11:17.243Z,3.80
2022-10-31T15:14:03.121Z,4.03
2022-10-31T15:16:35.779Z,4.53
2022-10-31T15:19:09.024Z,3.58
2022-10-31T15:21:46.657Z,3.97
2022-10-31T15:24:19.424Z,5.15
2022-10-31T15:26:50.149Z,4.17
2022-10-31T15:29:25.644Z,5.05
2022-10-31T15:32:25.973Z,4.93
2022-10-31T15:35:10.993Z,4.13
2022-10-31T15:38:08.125Z,3.80
2022-10-31T15:40:41.072Z,3.83
2022-10-31T15:43:17.171Z,4.07
2022-10-31T15:45:47.899Z,4.05
2022-10-31T15:48:21.939Z,3.58
2022-10-31T15:50:59.703Z,3.75
2022-10-31T15:53:30.994Z,4.00
2022-10-31T15:56:01.788Z,4.20
2022-10-31T15:58:29.538Z,3.38
2022-10-31T16:01:02.005Z,5.18
2022-10-31T16:03:33.271Z,5.40
2022-10-31T16:06:01.826Z,5.63
2022-10-31T16:08:31.231Z,5.18
2022-10-31T16:11:01.447Z,4.10
2022-10-31T16:13:33.054Z,4.30
2022-10-31T16:19:01.204Z,3.92
2022-10-31T16:21:32.126Z,4.28
2022-10-31T16:24:06.475Z,4.32
2022-10-31T16:26:42.814Z,4.63
2022-10-31T16:29:33.634Z,4.93
2022-10-31T16:32:00.107Z,5.25
2022-10-31T16:34:27.270Z,4.28
2022-10-31T16:36:54.123Z,4.75
2022-10-31T16:39:21.166Z,4.63
2022-10-31T16:41:52.008Z,4.78
2022-10-31T16:44:22.898Z,4.80
2022-10-31T16:47:13.860Z,5.53
2022-10-31T16:49:40.365Z,5.10
2022-10-31T16:52:07.161Z,5.57
2022-10-31T16:54:33.732Z,4.10
2022-10-31T16:57:00.917Z,4.40
2022-10-31T16:59:28.056Z,5.15
2022-10-31T17:01:55.549Z,5.05
2022-10-31T17:04:23.268Z,6.18
2022-10-31T17:06:49.817Z,4.53
2022-10-31T17:09:16.303Z,5.00
2022-10-31T17:11:49.336Z,4.32
2022-10-31T17:14:17.436Z,5.50
2022-10-31T17:16:43.939Z,4.80
2022-10-31T17:19:11.815Z,4.82
2022-10-31T17:21:39.377Z,4.53
2022-10-31T17:24:06.469Z,4.80
2022-10-31T17:26:33.180Z,4.68
2022-10-31T17:29:01.916Z,4.32
2022-10-31T17:31:32.854Z,4.43
2022-10-31T17:34:02.632Z,4.40
2022-10-31T17:36:31.606Z,5.28
2022-10-31T17:38:58.210Z,4.80
2022-10-31T17:41:24.689Z,6.88
2022-10-31T17:43:58.396Z,6.28
2022-10-31T17:48:51.305Z,6.30
2022-10-31T17:51:17.815Z,7.20
2022-10-31T17:53:44.252Z,6.30
2022-10-31T17:56:11.000Z,5.65
2022-10-31T17:58:37.980Z,4.82
2022-10-31T18:01:24.059Z,5.72
2022-10-31T18:04:18.309Z,5.50
2022-10-31T18:06:49.912Z,5.82
2022-10-31T18:09:16.654Z,5.93
2022-10-31T18:11:48.256Z,6.28
2022-10-31T18:15:09.239Z,5.57
2022-10-31T18:18:33.344Z,6.10
2022-10-31T18:20:59.822Z,5.10
2022-10-31T18:23:26.305Z,5.28
2022-10-31T18:25:54.286Z,6.43
2022-10-31T18:36:58.181Z,4.57
2022-10-31T18:39:24.793Z,4.65
2022-10-31T18:41:51.315Z,7.63
2022-10-31T18:44:24.124Z,8.40
2022-10-31T18:46:50.655Z,5.68
2022-10-31T18:49:22.473Z,5.60
2022-10-31T18:51:50.302Z,6.65
2022-10-31T18:54:17.028Z,6.47
2022-10-31T18:56:43.950Z,5.82
2022-10-31T18:59:11.228Z,5.18
2022-10-31T19:01:37.881Z,5.07
2022-10-31T19:04:04.713Z,5.70
2022-10-31T19:06:31.473Z,5.10
2022-10-31T19:09:00.731Z,4.20
2022-10-31T19:11:33.909Z,4.65
2022-10-31T19:14:00.972Z,6.10
2022-10-31T19:16:27.822Z,5.30
2022-10-31T19:18:59.800Z,6.05
2022-10-31T19:21:26.337Z,5.57
2022-10-31T19:23:56.291Z,5.32
2022-10-31T19:26:23.500Z,6.03
2022-10-31T19:28:50.128Z,6.45
2022-10-31T19:31:18.121Z,7.38
2022-10-31T19:33:45.489Z,5.20
2022-10-31T19:36:14.911Z,5.50
2022-10-31T19:38:43.700Z,7.53
2022-10-31T19:41:18.088Z,5.30
2022-10-31T19:43:45.015Z,10.10
2022-10-31T19:46:22.316Z,7.75
2022-10-31T19:49:12.751Z,7.55
2022-10-31T19:51:39.776Z,8.10
2022-10-31T19:54:07.766Z,8.07
2022-10-31T19:56:34.717Z,7.32
2022-10-31T19:59:02.691Z,7.35
2022-10-31T20:01:29.464Z,5.63
2022-10-31T20:03:55.976Z,5.32
2022-10-31T20:06:26.611Z,5.53
2022-10-31T20:08:55.604Z,4.88
2022-10-31T20:11:27.433Z,5.20
2022-10-31T20:13:58.909Z,5.18
2022-10-31T20:16:26.970Z,5.88
2022-10-31T20:18:54.092Z,6.20
2022-10-31T20:21:23.696Z,7.85
2022-10-31T20:24:01.327Z,8.85
2022-10-31T20:26:29.098Z,9.23
2022-10-31T20:28:56.859Z,10.55
2022-10-31T20:31:25.900Z,14.60
2022-10-31T20:33:53.524Z,11.85
2022-10-31T20:36:21.273Z,7.32
2022-10-31T20:38:47.950Z,7.53
2022-10-31T20:41:23.640Z,8.48
2022-10-31T20:43:50.268Z,10.77
2022-10-31T20:46:19.317Z,6.70
2022-10-31T20:48:46.678Z,7.97
2022-10-31T20:51:18.609Z,7.22
2022-10-31T20:53:45.153Z,8.13
2022-10-31T20:56:26.030Z,7.65
2022-10-31T20:58:54.708Z,9.27
2022-10-31T21:01:30.632Z,7.95
2022-10-31T21:03:58.522Z,8.02
2022-10-31T21:06:25.972Z,8.57
2022-10-31T21:08:56.519Z,8.02
2022-10-31T21:11:25.635Z,8.52
2022-10-31T21:13:52.682Z,8.85
2022-10-31T21:16:31.256Z,10.02
2022-10-31T21:19:00.952Z,8.40
2022-10-31T21:21:32.959Z,8.57
2022-10-31T21:24:06.016Z,8.00
2022-10-31T21:26:35.690Z,12.50
2022-10-31T21:29:04.070Z,10.85
2022-10-31T21:31:31.300Z,10.10
2022-10-31T21:33:58.101Z,8.05
2022-10-31T21:36:26.140Z,7.03
2022-10-31T21:38:54.099Z,7.05
2022-10-31T21:41:21.052Z,9.18
2022-10-31T21:43:49.662Z,10.45
2022-10-31T21:46:19.187Z,9.30
2022-10-31T21:48:46.069Z,10.10
2022-10-31T21:51:18.250Z,7.90
2022-10-31T21:54:03.323Z,6.38
2022-10-31T21:56:30.209Z,7.43
2022-10-31T21:58:56.606Z,7.25
2022-10-31T22:01:25.000Z,9.55
2022-10-31T22:03:51.622Z,9.73
2022-10-31T22:06:18.165Z,6.95
2022-10-31T22:08:45.568Z,6.80
2022-10-31T22:11:14.875Z,6.10
2022-10-31T22:13:43.594Z,8.45
2022-10-31T22:16:15.587Z,7.22
2022-10-31T22:18:43.233Z,6.35
2022-10-31T22:21:12.126Z,5.90
2022-10-31T22:23:39.408Z,5.95
2022-10-31T22:26:14.930Z,5.90
2022-10-31T22:28:46.864Z,6.20
2022-10-31T22:31:16.490Z,7.85
2022-10-31T22:33:43.863Z,6.85
2022-10-31T22:36:12.590Z,7.40
2022-10-31T22:38:40.912Z,9.35
2022-10-31T22:41:09.140Z,8.10
2022-10-31T22:43:35.663Z,8.55
2022-10-31T22:46:04.936Z,8.43
2022-10-31T22:48:36.555Z,7.32
2022-10-31T22:51:14.787Z,7.45
2022-10-31T22:53:42.030Z,9.80
2022-10-31T22:56:10.289Z,11.05
2022-10-31T22:58:37.139Z,8.43
